METAR AND TAF INFORMATION
METAR FOR LTCC
ADDS - METARS form results

(0544 UTC 29 May 2017)
Data provider http://aviationweather.gov/adds/metars/
 
METAR text: LTCC 290520Z 07004KT 010V110 CAVOK 22/10 Q1013 NOSIG RMK RWY16 08005KT 010V150
Conditions at: LTCC (DIYARBAKIR(CIV/A, TR) observed 0520 UTC 29 May 2017
Temperature: 22.0°C (72°F)
Dewpoint: 10.0°C (50°F) [RH = 46%]
Pressure (altimeter): 29.91 inches Hg (1013.0 mb)
Winds: from the ENE (70 degrees) at 5 MPH (4 knots; 2.1 m/s)
Visibility: 6 or more miles (10+ km)
Ceiling: ceiling and visibility are OK
Clouds: unknown
Weather: no significant weather observed at this time

METAR text: LTCC 290450Z VRB02KT CAVOK 22/11 Q1013 NOSIG RMK RWY16 06003KT 350V140
Conditions at: LTCC (DIYARBAKIR(CIV/A, TR) observed 0450 UTC 29 May 2017
Temperature: 22.0°C (72°F)
Dewpoint: 11.0°C (52°F) [RH = 50%]
Pressure (altimeter): 29.91 inches Hg (1013.0 mb)
Winds: variable direction winds at 2 MPH (2 knots; 1.0 m/s)
Visibility: 6 or more miles (10+ km)
Ceiling: ceiling and visibility are OK
Clouds: unknown
Weather: no significant weather observed at this time

Forecast for: LTCC (DIYARBAKIR(CIV/A, TR)
Text: TAF LTCC 290440Z 2906/3006 VRB02KT CAVOK
Forecast period: 0600 to 0800 UTC 29 May 2017
Forecast type: FROM: standard forecast or significant change
Winds: variable direction winds at 2 MPH (2 knots; 1.0 m/s)
Visibility: 6 or more miles (10+ km)
Clouds: not forecast
Weather: NSW  (no significant weather)
Text: BECMG 2908/2910 21012KT
Forecast period: 0800 UTC 29 May 2017 to 0600 UTC 30 May 2017
Forecast type: BECOMING: Conditions expected to become as follows by 1000 UTC 29 May 2017
Winds: from the SSW (210 degrees) at 14 MPH (12 knots; 6.2 m/s)
Visibility: 6 or more miles (10+ km)
Weather: NSW  (no significant weather)

 AIRPORT MAP

 RUNWAY INFORMATION
Runway 16 Runway length 11644 ft Runway width 148 ft
Runway elevation 2251 ft Runway displaced threshold 0 ft Runway heading 163
Runway 34 Runway length 11644 ft Runway width 148 ft
Runway elevation 2176 ft Runway displaced threshold 0 ft Runway heading 343

 AIRPORT FREQUENCIES
Type ACP Name MAC ALCE Frequency 123.2 MHZ
Type APP Name APP Frequency 122.1 MHZ
Type ATIS Name ATIS Frequency 122.425 MHZ
Type GND Name GND Frequency 122.1 MHZ
Type TWR Name TWR Frequency 118.1 MHZ

 AIRPORT NEAR NAVIGATION AIDS
Type TACAN Name Diyarbakir Frequency 110000 KHZ
Type VOR-DME Name Diyarbakir Frequency 109400 KHZ
Type NDB Name Diyarbakir Frequency 330 KHZ



All Rights Reserved Birgenair VA 2017